Time;durP1;ratioP1;P1;durP2;ratioP2;P2;SDS_P1;SDS_P2;PMS_P1;PMS_P2;Temp;Humidity;BMP_temperature;BMP_pressure;BME280_temperature;BME280_humidity;BME280_pressure;Samples;Min_cycle;Max_cycle;Signal;HPM_P1;HPM_P2
2023/01/10 00:01:59;;;;;;;18.57;4.73;;;8.60;99.90;;;;;;5028187;28;20249;-81
2023/01/10 00:04:28;;;;;;;22.87;4.23;;;8.60;99.90;;;;;;5028866;28;20250;-81
2023/01/10 00:06:55;;;;;;;18.93;3.63;;;8.60;99.90;;;;;;5023044;28;20214;-80
2023/01/10 00:09:22;;;;;;;25.07;4.63;;;8.60;99.90;;;;;;5009088;28;20266;-84
2023/01/10 00:14:35;;;;;;;14.17;3.27;;;8.60;99.90;;;;;;5047040;28;20227;-80
2023/01/10 00:17:02;;;;;;;24.07;5.10;;;8.70;99.90;;;;;;5047640;28;20305;-82
2023/01/10 00:19:29;;;;;;;21.13;5.30;;;8.70;99.90;;;;;;5060081;28;20311;-80
2023/01/10 00:22:11;;;;;;;18.37;3.93;;;8.70;99.90;;;;;;5040300;28;20293;-83
2023/01/10 00:24:38;;;;;;;15.57;3.63;;;8.70;99.90;;;;;;5026937;28;20392;-82
2023/01/10 00:27:05;;;;;;;17.37;3.63;;;8.70;99.90;;;;;;5026753;28;20598;-81
2023/01/10 00:29:32;;;;;;;16.83;4.07;;;8.60;99.90;;;;;;5026588;28;20203;-80
2023/01/10 00:32:01;;;;;;;13.83;3.90;;;8.50;99.90;;;;;;5025874;28;20206;-81
2023/01/10 00:34:28;;;;;;;24.27;5.07;;;8.60;99.90;;;;;;5026472;28;20221;-83
2023/01/10 00:36:55;;;;;;;17.87;5.00;;;8.50;99.90;;;;;;5036095;28;20210;-80
2023/01/10 00:39:26;;;;;;;23.97;4.70;;;8.50;99.90;;;;;;5047552;28;20263;-81
2023/01/10 00:44:37;;;;;;;20.50;4.67;;;8.60;99.90;;;;;;5025469;28;20272;-82
2023/01/10 00:47:05;;;;;;;14.17;3.57;;;8.70;99.90;;;;;;5024462;28;20211;-83
2023/01/10 00:49:32;;;;;;;16.53;4.37;;;8.70;99.90;;;;;;5023702;28;20297;-81
2023/01/10 00:51:59;;;;;;;20.03;4.43;;;8.70;99.90;;;;;;5026112;28;20249;-88
2023/01/10 00:54:26;;;;;;;16.80;4.17;;;8.70;99.90;;;;;;5047012;28;20219;-88
2023/01/10 00:56:53;;;;;;;22.03;4.13;;;8.70;99.90;;;;;;5051010;28;20206;-89
2023/01/10 00:59:20;;;;;;;17.63;4.57;;;8.70;99.90;;;;;;5050672;28;20586;-88
2023/01/10 01:01:47;;;;;;;11.50;3.10;;;8.70;99.90;;;;;;5051988;28;20205;-86
2023/01/10 01:04:16;;;;;;;22.20;4.53;;;8.70;99.90;;;;;;5051806;28;20222;-86
2023/01/10 01:06:44;;;;;;;21.87;5.33;;;8.70;99.90;;;;;;5051542;28;20229;-87
2023/01/10 01:09:11;;;;;;;20.83;4.30;;;8.70;99.90;;;;;;5051466;28;20242;-88
2023/01/10 01:11:38;;;;;;;23.30;5.13;;;8.70;99.90;;;;;;5051804;28;20212;-88
2023/01/10 01:14:05;;;;;;;24.43;4.43;;;8.70;99.90;;;;;;5051771;28;20724;-86
2023/01/10 01:16:32;;;;;;;22.17;4.73;;;8.70;99.90;;;;;;5038358;28;20234;-87
2023/01/10 01:18:59;;;;;;;27.63;5.13;;;8.80;99.90;;;;;;5029885;28;20320;-88
2023/01/10 01:21:27;;;;;;;27.53;5.17;;;8.80;99.90;;;;;;5029816;28;20203;-84
2023/01/10 01:23:55;;;;;;;19.67;4.33;;;8.80;99.90;;;;;;5025838;28;20216;-89
2023/01/10 01:26:22;;;;;;;21.23;3.90;;;8.70;99.90;;;;;;5027470;28;20214;-82
2023/01/10 01:28:49;;;;;;;20.83;4.03;;;8.70;99.90;;;;;;5027672;28;20202;-86
2023/01/10 01:31:16;;;;;;;23.77;6.17;;;8.70;99.90;;;;;;5029986;28;20217;-89
2023/01/10 01:33:43;;;;;;;24.60;5.00;;;8.70;99.90;;;;;;5053805;23;20245;-85
2023/01/10 01:36:11;;;;;;;25.03;6.43;;;8.70;99.90;;;;;;5023202;28;20216;-86
2023/01/10 01:38:41;;;;;;;28.93;5.70;;;8.70;99.90;;;;;;5026812;28;20595;-83
2023/01/10 01:41:55;;;;;;;23.93;5.57;;;8.70;99.90;;;;;;5026567;28;20198;-80
2023/01/10 01:44:03;;;;;;;22.83;4.80;;;8.70;99.90;;;;;;5026451;28;20202;-84
2023/01/10 01:46:33;;;;;;;21.23;4.23;;;8.80;99.90;;;;;;5028182;28;20212;-80
2023/01/10 01:49:01;;;;;;;20.03;4.67;;;8.80;99.90;;;;;;5026710;28;20202;-79
2023/01/10 01:51:30;;;;;;;23.33;4.53;;;8.80;99.90;;;;;;5025785;28;20209;-79
2023/01/10 01:54:02;;;;;;;20.57;5.50;;;8.80;99.90;;;;;;5027421;28;20214;-81
2023/01/10 01:56:34;;;;;;;18.33;4.50;;;8.80;99.90;;;;;;5025740;28;20199;-81
2023/01/10 01:59:05;;;;;;;21.07;4.30;;;8.70;99.90;;;;;;5025602;28;20207;-81
2023/01/10 02:01:33;;;;;;;20.03;4.33;;;8.70;99.90;;;;;;5027872;28;20277;-81
2023/01/10 02:04:10;;;;;;;23.30;4.07;;;8.70;99.90;;;;;;5046349;28;20208;-82
2023/01/10 02:06:37;;;;;;;23.50;5.33;;;8.60;99.90;;;;;;5047046;28;20220;-86
2023/01/10 02:09:12;;;;;;;19.90;6.47;;;8.60;99.90;;;;;;5050998;28;20217;-87
2023/01/10 02:11:39;;;;;;;22.90;5.07;;;8.50;99.90;;;;;;5050540;28;20189;-87
2023/01/10 02:14:08;;;;;;;26.10;5.70;;;8.50;99.90;;;;;;5046107;28;20217;-86
2023/01/10 02:16:35;;;;;;;21.03;5.27;;;8.50;99.90;;;;;;5030378;28;20226;-87
2023/01/10 02:19:02;;;;;;;28.33;5.40;;;8.50;99.90;;;;;;5029832;28;20291;-85
2023/01/10 02:22:13;;;;;;;27.37;4.87;;;8.50;99.90;;;;;;5034224;28;20240;-85
2023/01/10 02:25:03;;;;;;;20.80;4.50;;;8.50;99.90;;;;;;5012237;28;20255;-84
2023/01/10 02:27:41;;;;;;;19.63;4.33;;;8.50;99.90;;;;;;5049873;28;20217;-88
2023/01/10 02:30:37;;;;;;;21.43;4.87;;;8.60;99.90;;;;;;5031887;28;20224;-87
2023/01/10 02:33:14;;;;;;;16.87;4.63;;;8.60;99.90;;;;;;5029218;28;20322;-85
2023/01/10 02:35:56;;;;;;;21.67;5.73;;;8.60;99.90;;;;;;5029831;28;20210;-87
2023/01/10 02:38:35;;;;;;;18.50;4.70;;;8.60;99.90;;;;;;5030579;28;20297;-86
2023/01/10 02:41:08;;;;;;;17.67;5.30;;;8.60;99.90;;;;;;5039578;28;20285;-86
2023/01/10 02:43:39;;;;;;;28.83;4.47;;;8.60;99.90;;;;;;5025003;28;20203;-89
2023/01/10 02:46:11;;;;;;;23.50;5.77;;;8.60;99.90;;;;;;5026762;28;20608;-86
2023/01/10 02:48:39;;;;;;;24.97;5.33;;;8.60;99.90;;;;;;5027245;28;20206;-82
2023/01/10 02:51:15;;;;;;;18.13;4.33;;;8.50;99.90;;;;;;5036742;28;20404;-82
2023/01/10 02:53:44;;;;;;;17.47;4.13;;;8.50;99.90;;;;;;5047739;28;20293;-84
2023/01/10 02:56:37;;;;;;;19.97;4.30;;;8.60;99.90;;;;;;5030453;28;20654;-84
2023/01/10 02:59:43;;;;;;;24.40;5.23;;;8.60;99.90;;;;;;5030092;28;20226;-86
2023/01/10 03:02:23;;;;;;;21.57;4.37;;;8.60;99.90;;;;;;5026453;28;20230;-79
2023/01/10 03:04:57;;;;;;;20.00;6.03;;;8.60;99.90;;;;;;5027685;28;20747;-84
2023/01/10 03:07:33;;;;;;;17.83;4.90;;;8.70;99.90;;;;;;5028870;28;20191;-88
2023/01/10 03:10:06;;;;;;;21.60;4.77;;;8.70;99.90;;;;;;5029437;28;20305;-88
2023/01/10 03:12:39;;;;;;;23.07;4.47;;;8.70;99.90;;;;;;5030608;28;20202;-90
2023/01/10 03:15:08;;;;;;;17.37;4.23;;;8.70;99.90;;;;;;5027332;28;20203;-87
2023/01/10 03:17:37;;;;;;;18.23;4.57;;;8.70;99.90;;;;;;5026447;28;20216;-85
2023/01/10 03:20:08;;;;;;;19.53;5.47;;;8.70;99.90;;;;;;5027148;28;20221;-82
2023/01/10 03:22:39;;;;;;;27.93;6.33;;;8.70;99.90;;;;;;5024609;28;20191;-82
2023/01/10 03:25:10;;;;;;;17.80;4.53;;;8.70;99.90;;;;;;5027107;28;20238;-81
2023/01/10 03:27:44;;;;;;;21.10;4.10;;;8.70;99.90;;;;;;5029219;28;20867;-82
2023/01/10 03:30:24;;;;;;;22.00;4.93;;;8.70;99.90;;;;;;5028665;28;20208;-82
2023/01/10 03:32:51;;;;;;;19.13;4.70;;;8.70;99.90;;;;;;5028108;28;20547;-83
2023/01/10 03:35:22;;;;;;;16.17;4.77;;;8.70;99.90;;;;;;5028303;28;20233;-82
2023/01/10 03:37:55;;;;;;;19.97;4.57;;;8.60;99.90;;;;;;5037028;28;20190;-80
2023/01/10 03:40:28;;;;;;;19.03;4.87;;;8.60;99.90;;;;;;5045690;28;20205;-83
2023/01/10 03:45:55;;;;;;;17.83;4.37;;;8.60;99.90;;;;;;5030086;28;20218;-84
2023/01/10 03:48:27;;;;;;;20.50;4.63;;;8.60;99.90;;;;;;5031252;28;20614;-83
2023/01/10 03:50:56;;;;;;;30.97;5.47;;;8.70;99.90;;;;;;5049839;28;20206;-86
2023/01/10 03:53:23;;;;;;;18.87;4.00;;;8.70;99.90;;;;;;5050696;28;20318;-83
2023/01/10 03:55:50;;;;;;;16.60;4.90;;;8.70;99.90;;;;;;5049694;28;20258;-81
2023/01/10 03:58:20;;;;;;;21.33;3.77;;;8.70;99.90;;;;;;5047787;28;20315;-80
2023/01/10 04:00:47;;;;;;;18.90;4.63;;;8.70;99.90;;;;;;5049985;28;20317;-86
2023/01/10 04:03:15;;;;;;;16.37;4.33;;;8.70;99.90;;;;;;5050162;28;20201;-82
2023/01/10 04:05:41;;;;;;;23.60;4.47;;;8.70;99.90;;;;;;5031788;28;20636;-82
2023/01/10 04:08:10;;;;;;;26.47;4.87;;;8.70;99.90;;;;;;5050925;28;20297;-82
2023/01/10 04:10:37;;;;;;;19.77;5.20;;;8.70;99.90;;;;;;5050207;28;20202;-86
2023/01/10 04:13:04;;;;;;;23.57;5.03;;;8.70;99.90;;;;;;5067189;28;20266;-82
2023/01/10 04:15:32;;;;;;;18.73;4.40;;;8.60;99.90;;;;;;5070794;28;20233;-82
2023/01/10 04:17:59;;;;;;;24.23;5.03;;;8.60;99.90;;;;;;5070665;28;20316;-83
2023/01/10 04:20:26;;;;;;;20.60;4.20;;;8.50;99.90;;;;;;5070299;28;20309;-83
2023/01/10 04:22:53;;;;;;;20.37;4.63;;;8.50;99.90;;;;;;5054071;28;20221;-82
2023/01/10 04:25:22;;;;;;;28.80;5.00;;;8.50;99.90;;;;;;5047812;28;20222;-85
2023/01/10 04:27:49;;;;;;;20.63;4.80;;;8.40;99.90;;;;;;5034526;28;20325;-81
2023/01/10 04:30:17;;;;;;;21.53;5.47;;;8.40;99.90;;;;;;5029970;28;20199;-82
2023/01/10 04:32:44;;;;;;;29.17;6.10;;;8.40;99.90;;;;;;5029755;28;20239;-84
2023/01/10 04:35:11;;;;;;;19.47;4.10;;;8.40;99.90;;;;;;5029438;28;20222;-82
2023/01/10 04:37:38;;;;;;;17.83;4.57;;;8.30;99.90;;;;;;5047637;28;20299;-83
2023/01/10 04:40:06;;;;;;;26.83;4.73;;;8.30;99.90;;;;;;5049592;28;20225;-87
2023/01/10 04:42:35;;;;;;;13.20;3.97;;;8.30;99.90;;;;;;5049446;28;20198;-88
2023/01/10 04:45:01;;;;;;;20.00;5.13;;;8.20;99.90;;;;;;5034695;28;20238;-83
2023/01/10 04:47:28;;;;;;;17.30;4.47;;;8.20;99.90;;;;;;5029701;28;20234;-82
2023/01/10 04:49:56;;;;;;;20.30;5.57;;;8.20;99.90;;;;;;5030090;28;20294;-82
2023/01/10 04:52:24;;;;;;;21.53;4.20;;;8.20;99.90;;;;;;5038605;28;20289;-82
2023/01/10 04:54:51;;;;;;;17.30;3.80;;;8.10;99.90;;;;;;5048701;28;20208;-84
2023/01/10 04:57:18;;;;;;;18.47;4.20;;;8.10;99.90;;;;;;5048540;28;20216;-85
2023/01/10 04:59:47;;;;;;;18.23;4.80;;;8.10;99.90;;;;;;5049935;28;20220;-84
2023/01/10 05:02:13;;;;;;;23.80;5.30;;;8.10;99.90;;;;;;5029738;28;20206;-83
2023/01/10 05:04:40;;;;;;;18.93;5.30;;;8.10;99.90;;;;;;5028879;28;20217;-84
2023/01/10 05:07:07;;;;;;;19.23;5.17;;;8.00;99.90;;;;;;5029570;28;20299;-81
2023/01/10 05:09:34;;;;;;;22.00;5.10;;;8.00;99.90;;;;;;5029316;28;20199;-82
2023/01/10 05:12:03;;;;;;;15.80;4.20;;;8.00;99.90;;;;;;5029800;28;20289;-84
2023/01/10 05:14:30;;;;;;;26.70;4.50;;;8.00;99.90;;;;;;5047646;28;20214;-83
2023/01/10 05:16:58;;;;;;;15.73;3.93;;;8.00;99.90;;;;;;5049095;28;20209;-84
2023/01/10 05:19:25;;;;;;;25.63;5.97;;;8.10;99.90;;;;;;5032934;28;20294;-86
2023/01/10 05:21:56;;;;;;;17.63;4.30;;;8.10;99.90;;;;;;5029109;28;20219;-82
2023/01/10 05:24:22;;;;;;;21.60;5.43;;;8.20;99.90;;;;;;5029192;28;20207;-83
2023/01/10 05:26:49;;;;;;;24.50;5.00;;;8.10;99.90;;;;;;5028930;28;20214;-83
2023/01/10 05:29:16;;;;;;;18.47;5.77;;;8.10;99.90;;;;;;5028172;28;20206;-83
2023/01/10 05:31:43;;;;;;;19.33;4.40;;;8.10;99.90;;;;;;5029079;28;20209;-83
2023/01/10 05:34:14;;;;;;;20.20;4.60;;;8.10;99.90;;;;;;5028188;28;20661;-82
2023/01/10 05:36:41;;;;;;;14.77;4.30;;;8.10;99.90;;;;;;5028135;28;20199;-83
2023/01/10 05:39:08;;;;;;;11.83;3.70;;;8.20;99.90;;;;;;5027929;28;20210;-84
2023/01/10 05:41:35;;;;;;;21.30;5.60;;;8.10;99.90;;;;;;5027958;28;20191;-81
2023/01/10 05:44:02;;;;;;;22.57;5.70;;;8.10;99.90;;;;;;5028122;28;20252;-81
2023/01/10 05:46:29;;;;;;;17.43;5.03;;;8.10;99.90;;;;;;5036906;28;20585;-85
2023/01/10 05:48:57;;;;;;;17.07;4.20;;;8.00;99.90;;;;;;5050125;28;20263;-85
2023/01/10 05:51:25;;;;;;;16.50;3.90;;;8.00;99.90;;;;;;5050040;28;20217;-84
2023/01/10 05:53:52;;;;;;;17.20;4.27;;;8.00;99.90;;;;;;5049573;28;20512;-82
2023/01/10 05:56:19;;;;;;;16.00;3.90;;;8.10;99.90;;;;;;5048206;28;20212;-88
2023/01/10 05:58:46;;;;;;;20.40;4.67;;;8.10;99.90;;;;;;5037996;28;20658;-85
2023/01/10 06:01:13;;;;;;;17.20;3.90;;;8.20;99.90;;;;;;5028414;28;20643;-83
2023/01/10 06:03:40;;;;;;;25.47;4.87;;;8.20;99.90;;;;;;5044009;28;20693;-84
2023/01/10 06:06:07;;;;;;;14.73;3.80;;;8.20;99.90;;;;;;5047639;28;20221;-83
2023/01/10 06:08:36;;;;;;;18.63;3.73;;;8.20;99.90;;;;;;5048378;28;20204;-82
2023/01/10 06:11:03;;;;;;;15.97;3.87;;;8.20;99.90;;;;;;5032584;28;20513;-81
2023/01/10 06:13:30;;;;;;;14.40;3.73;;;8.20;99.90;;;;;;5029206;28;21122;-82
2023/01/10 06:15:57;;;;;;;13.37;3.50;;;8.20;99.90;;;;;;5046560;28;20229;-82
2023/01/10 06:18:24;;;;;;;18.27;4.40;;;8.20;99.90;;;;;;5047686;28;20198;-82
2023/01/10 06:20:51;;;;;;;19.57;4.77;;;8.20;99.90;;;;;;5048023;28;20206;-85
2023/01/10 06:23:18;;;;;;;21.23;4.33;;;8.30;99.90;;;;;;5047447;28;20229;-86
2023/01/10 06:25:46;;;;;;;22.60;5.03;;;8.30;99.90;;;;;;5048349;28;20228;-84
2023/01/10 06:28:14;;;;;;;17.67;5.53;;;8.30;99.90;;;;;;5043908;28;20294;-80
2023/01/10 06:30:42;;;;;;;19.93;6.10;;;8.30;99.90;;;;;;5028130;28;20716;-84
2023/01/10 06:33:10;;;;;;;21.93;6.10;;;8.30;99.90;;;;;;5028080;28;20242;-83
2023/01/10 06:35:37;;;;;;;31.00;7.30;;;8.20;99.90;;;;;;5028126;28;20209;-83
2023/01/10 06:38:04;;;;;;;20.00;5.67;;;8.20;99.90;;;;;;5029151;28;20211;-85
2023/01/10 06:40:31;;;;;;;19.33;5.20;;;8.20;99.90;;;;;;5042294;28;20293;-81
2023/01/10 06:43:00;;;;;;;20.50;5.20;;;8.20;99.90;;;;;;5049227;28;20544;-84
2023/01/10 06:45:27;;;;;;;15.33;4.70;;;8.10;99.90;;;;;;5048697;28;20270;-84
2023/01/10 06:47:53;;;;;;;18.20;4.23;;;8.10;99.90;;;;;;5048414;28;20782;-82
2023/01/10 06:50:20;;;;;;;26.00;6.80;;;8.10;99.90;;;;;;5037044;28;20217;-81
2023/01/10 06:52:55;;;;;;;18.53;5.17;;;8.10;99.90;;;;;;5028189;28;20210;-83
2023/01/10 06:55:22;;;;;;;18.80;3.93;;;8.00;99.90;;;;;;5027828;28;20788;-82
2023/01/10 06:57:49;;;;;;;21.40;6.03;;;8.00;99.90;;;;;;5028229;28;20202;-82
2023/01/10 07:00:19;;;;;;;20.10;4.30;;;8.00;99.90;;;;;;5030984;28;20282;-84
2023/01/10 07:02:46;;;;;;;16.43;4.40;;;8.00;99.90;;;;;;5031913;28;20650;-84
2023/01/10 07:05:15;;;;;;;18.23;4.80;;;8.00;99.90;;;;;;5032833;28;20207;-82
2023/01/10 07:07:42;;;;;;;19.47;4.50;;;8.00;99.90;;;;;;5032144;28;20230;-82
2023/01/10 07:10:10;;;;;;;22.70;5.53;;;8.00;99.90;;;;;;5031604;28;20216;-82
2023/01/10 07:12:37;;;;;;;13.67;3.63;;;8.00;99.90;;;;;;5045356;28;20201;-83
2023/01/10 07:17:41;;;;;;;21.13;4.23;;;8.10;99.90;;;;;;5271969;22;20548;-85
2023/01/10 07:20:09;;;;;;;16.47;4.43;;;8.10;99.90;;;;;;5071764;28;20205;-84
2023/01/10 07:22:36;;;;;;;25.30;4.83;;;8.10;99.90;;;;;;5069487;28;20220;-82
2023/01/10 07:25:03;;;;;;;15.47;4.13;;;8.20;99.90;;;;;;5052880;28;20201;-81
2023/01/10 07:27:31;;;;;;;20.83;5.13;;;8.20;99.90;;;;;;5068867;28;20336;-82
2023/01/10 07:29:59;;;;;;;16.47;5.20;;;8.10;99.90;;;;;;5063456;28;20256;-81
2023/01/10 07:32:28;;;;;;;17.50;4.53;;;8.10;99.90;;;;;;5068245;28;20274;-81
2023/01/10 07:34:57;;;;;;;20.47;5.10;;;8.10;99.90;;;;;;5055887;28;20313;-81
2023/01/10 07:37:24;;;;;;;19.07;4.60;;;8.10;99.90;;;;;;5062887;28;20233;-81
2023/01/10 07:39:51;;;;;;;20.73;5.53;;;8.10;99.90;;;;;;5067253;28;20904;-88
2023/01/10 07:42:18;;;;;;;19.67;4.30;;;8.10;99.90;;;;;;5065710;28;20347;-81
2023/01/10 07:44:45;;;;;;;18.27;5.00;;;8.10;99.90;;;;;;5061249;28;20576;-80
2023/01/10 07:47:12;;;;;;;19.00;4.63;;;8.10;99.90;;;;;;5066888;28;20221;-80
2023/01/10 07:49:39;;;;;;;20.67;4.00;;;8.10;99.90;;;;;;5067227;28;21048;-82
2023/01/10 07:52:08;;;;;;;20.57;6.10;;;8.00;99.90;;;;;;5065034;28;20224;-80
2023/01/10 07:54:35;;;;;;;22.63;5.17;;;8.00;99.90;;;;;;5047483;28;20255;-81
2023/01/10 07:57:02;;;;;;;22.63;4.60;;;8.00;99.90;;;;;;5046780;28;20293;-81
2023/01/10 07:59:29;;;;;;;20.60;4.57;;;8.00;99.90;;;;;;5067805;28;20352;-81
2023/01/10 08:01:56;;;;;;;23.00;6.37;;;8.00;99.90;;;;;;5066990;28;20292;-81
2023/01/10 08:04:23;;;;;;;20.33;5.93;;;8.00;99.90;;;;;;5063992;28;20297;-83
2023/01/10 08:06:50;;;;;;;18.07;5.13;;;8.00;99.90;;;;;;5047059;28;20235;-82
2023/01/10 08:09:18;;;;;;;18.47;4.87;;;8.00;99.90;;;;;;5045146;28;20202;-83
2023/01/10 08:11:45;;;;;;;18.63;5.13;;;8.10;99.90;;;;;;5048880;28;20300;-85
2023/01/10 08:14:12;;;;;;;21.57;4.33;;;8.10;99.90;;;;;;5052964;28;20221;-86
2023/01/10 08:16:39;;;;;;;24.53;4.67;;;8.10;99.90;;;;;;5049585;28;20233;-86
2023/01/10 08:19:06;;;;;;;27.33;5.33;;;8.10;99.90;;;;;;5051764;28;20677;-83
2023/01/10 08:21:33;;;;;;;16.00;3.90;;;8.20;99.90;;;;;;5051453;28;20263;-84
2023/01/10 08:24:00;;;;;;;27.17;5.40;;;8.20;99.90;;;;;;5051643;28;20289;-85
2023/01/10 08:26:28;;;;;;;30.07;5.93;;;8.20;99.90;;;;;;5050448;28;20316;-84
2023/01/10 08:28:55;;;;;;;21.93;4.73;;;8.20;99.90;;;;;;5050987;28;20222;-84
2023/01/10 08:31:22;;;;;;;20.33;5.10;;;8.20;99.90;;;;;;5050162;28;20768;-79
2023/01/10 08:33:49;;;;;;;28.50;5.70;;;8.20;99.90;;;;;;5062664;28;20221;-85
2023/01/10 08:36:17;;;;;;;21.13;5.07;;;8.20;99.90;;;;;;5069595;28;20255;-83
2023/01/10 08:38:44;;;;;;;15.90;4.30;;;8.30;99.90;;;;;;5071019;28;20647;-83
2023/01/10 08:41:12;;;;;;;27.70;5.17;;;8.30;99.90;;;;;;5052432;28;20702;-84
2023/01/10 08:43:40;;;;;;;21.67;5.10;;;8.30;99.90;;;;;;5050344;28;20213;-83
2023/01/10 08:46:08;;;;;;;21.33;4.80;;;8.30;99.90;;;;;;5050010;28;20656;-84
2023/01/10 08:48:35;;;;;;;28.97;5.30;;;8.30;99.90;;;;;;5052006;28;20212;-85
2023/01/10 08:51:07;;;;;;;25.40;4.73;;;8.30;99.90;;;;;;5070195;28;20567;-82
2023/01/10 08:53:33;;;;;;;21.60;5.07;;;8.30;99.90;;;;;;5067161;28;20562;-85
2023/01/10 08:56:03;;;;;;;16.93;3.80;;;8.30;99.90;;;;;;5067858;28;20205;-84
2023/01/10 08:58:30;;;;;;;19.10;4.57;;;8.30;99.90;;;;;;5065733;28;20288;-82
2023/01/10 09:00:58;;;;;;;21.57;5.30;;;8.30;99.90;;;;;;5044839;28;20260;-85
2023/01/10 09:03:25;;;;;;;27.57;6.30;;;8.30;99.90;;;;;;5046630;28;20329;-81
2023/01/10 09:05:52;;;;;;;23.93;5.53;;;8.40;99.90;;;;;;5047090;28;20194;-81
2023/01/10 09:08:19;;;;;;;13.53;3.63;;;8.40;99.90;;;;;;5046400;28;20308;-81
2023/01/10 09:10:47;;;;;;;23.03;5.80;;;8.40;99.90;;;;;;5046151;28;20664;-83
2023/01/10 09:13:14;;;;;;;27.00;5.30;;;8.40;99.90;;;;;;5062642;28;20746;-83
2023/01/10 09:15:42;;;;;;;22.63;4.87;;;8.40;99.90;;;;;;5065302;28;20649;-80
2023/01/10 09:18:13;;;;;;;28.23;5.67;;;8.50;99.90;;;;;;5051491;28;20205;-83
2023/01/10 09:20:41;;;;;;;22.43;4.90;;;8.50;99.90;;;;;;5043742;28;20244;-82
2023/01/10 09:23:09;;;;;;;16.83;4.00;;;8.50;99.90;;;;;;5042848;28;20274;-82
2023/01/10 09:25:36;;;;;;;22.83;4.30;;;8.50;99.90;;;;;;5045768;28;20206;-81
2023/01/10 09:28:05;;;;;;;19.13;4.03;;;8.40;99.90;;;;;;5046332;28;20222;-80
2023/01/10 09:30:32;;;;;;;24.80;4.50;;;8.40;99.90;;;;;;5046928;28;20230;-80
2023/01/10 09:32:59;;;;;;;19.57;4.93;;;8.40;99.90;;;;;;5046632;28;20232;-81
2023/01/10 09:35:30;;;;;;;21.97;3.90;;;8.40;99.90;;;;;;5046883;28;20321;-82
2023/01/10 09:37:59;;;;;;;19.10;5.23;;;8.40;99.90;;;;;;5046746;28;20229;-81
2023/01/10 09:40:37;;;;;;;16.53;4.57;;;8.40;99.90;;;;;;5047422;28;20296;-82
2023/01/10 09:43:12;;;;;;;15.13;3.90;;;8.40;99.90;;;;;;5046910;28;20521;-80
2023/01/10 09:45:50;;;;;;;22.47;4.47;;;8.50;99.90;;;;;;5046223;28;20185;-80
2023/01/10 09:48:24;;;;;;;22.87;5.13;;;8.50;99.90;;;;;;5047814;28;20209;-84
2023/01/10 09:51:10;;;;;;;20.13;4.30;;;8.50;99.90;;;;;;5046398;28;20209;-81
2023/01/10 09:53:41;;;;;;;25.73;5.63;;;8.50;99.90;;;;;;5047562;28;20221;-82
2023/01/10 09:56:08;;;;;;;23.33;6.20;;;8.50;99.90;;;;;;5047355;28;20329;-83
2023/01/10 09:58:37;;;;;;;22.57;4.20;;;8.40;99.90;;;;;;5066604;28;20701;-81
2023/01/10 10:01:09;;;;;;;21.93;4.43;;;8.40;99.90;;;;;;5067009;28;20601;-84
2023/01/10 10:03:45;;;;;;;15.63;4.70;;;8.40;99.90;;;;;;5066916;28;20635;-82
2023/01/10 10:06:14;;;;;;;19.17;4.70;;;8.40;99.90;;;;;;5045199;28;20201;-81
2023/01/10 10:08:44;;;;;;;14.87;4.20;;;8.40;99.90;;;;;;5044170;28;20224;-83
2023/01/10 10:11:34;;;;;;;21.37;5.33;;;8.40;99.90;;;;;;5044096;28;20224;-82
2023/01/10 10:14:06;;;;;;;24.20;4.57;;;8.40;99.90;;;;;;5046555;28;20281;-83
2023/01/10 10:16:54;;;;;;;15.23;4.47;;;8.40;99.90;;;;;;5046081;28;20235;-82
2023/01/10 10:19:35;;;;;;;28.57;5.50;;;8.30;99.90;;;;;;5056321;28;20196;-78
2023/01/10 10:22:11;;;;;;;24.40;5.13;;;8.30;99.90;;;;;;5066490;28;20277;-83
2023/01/10 10:24:52;;;;;;;23.00;4.60;;;8.30;99.90;;;;;;5059438;28;20243;-81
2023/01/10 10:27:23;;;;;;;28.10;5.63;;;8.20;99.90;;;;;;5047439;28;20314;-82
2023/01/10 10:30:03;;;;;;;24.27;5.93;;;8.20;99.90;;;;;;5047459;28;20201;-84
2023/01/10 10:32:49;;;;;;;23.13;5.17;;;8.10;99.90;;;;;;5043212;28;20507;-82
2023/01/10 10:35:25;;;;;;;17.47;4.47;;;8.10;99.90;;;;;;5048919;28;20197;-83
2023/01/10 10:37:58;;;;;;;22.70;6.53;;;8.00;99.90;;;;;;5051184;28;20273;-83
2023/01/10 10:40:28;;;;;;;17.33;5.83;;;8.00;99.90;;;;;;5050870;28;20187;-83
2023/01/10 10:42:59;;;;;;;23.70;5.73;;;8.00;99.90;;;;;;5052059;28;20201;-83
2023/01/10 10:45:38;;;;;;;21.97;4.43;;;8.00;99.90;;;;;;5049976;28;20602;-84
2023/01/10 10:48:13;;;;;;;19.03;5.10;;;8.00;99.90;;;;;;5052392;28;20214;-84
2023/01/10 10:50:50;;;;;;;25.37;5.13;;;7.90;99.90;;;;;;5052706;28;20327;-85
2023/01/10 10:53:18;;;;;;;16.23;5.20;;;7.90;99.90;;;;;;5063202;28;20601;-81
2023/01/10 10:55:46;;;;;;;20.10;5.30;;;7.90;99.90;;;;;;5069676;28;20216;-83
2023/01/10 10:58:14;;;;;;;23.33;6.03;;;7.90;99.90;;;;;;5087003;28;20204;-84
2023/01/10 11:00:42;;;;;;;18.10;4.90;;;7.90;99.90;;;;;;5082111;28;20514;-83
2023/01/10 11:03:26;;;;;;;28.13;5.67;;;7.90;99.90;;;;;;5072070;28;20832;-83
2023/01/10 11:05:55;;;;;;;25.80;6.57;;;7.90;99.90;;;;;;5071873;28;20600;-83
2023/01/10 11:08:25;;;;;;;23.60;5.33;;;7.90;99.90;;;;;;5084405;28;20220;-82
2023/01/10 11:10:55;;;;;;;19.80;4.77;;;7.90;99.90;;;;;;5087677;28;20292;-82
2023/01/10 11:13:37;;;;;;;22.37;5.40;;;7.90;99.90;;;;;;5074075;28;20306;-82
2023/01/10 11:16:08;;;;;;;17.27;5.97;;;7.90;99.90;;;;;;5062825;28;20249;-86
2023/01/10 11:18:37;;;;;;;19.93;4.63;;;7.90;99.90;;;;;;5069340;28;20276;-84
2023/01/10 11:21:11;;;;;;;16.77;4.37;;;7.90;99.90;;;;;;5065440;28;20624;-84
2023/01/10 11:23:43;;;;;;;21.53;5.60;;;7.90;99.90;;;;;;5065355;28;20506;-82
2023/01/10 11:26:24;;;;;;;26.27;5.33;;;7.90;99.90;;;;;;5069048;28;20197;-82
2023/01/10 11:28:54;;;;;;;22.47;4.80;;;7.90;99.90;;;;;;5066285;28;20213;-82
2023/01/10 11:31:28;;;;;;;19.60;5.20;;;7.90;99.90;;;;;;5083202;28;20235;-82
2023/01/10 11:33:55;;;;;;;22.83;6.00;;;7.80;99.90;;;;;;5050063;28;20236;-83
2023/01/10 11:36:22;;;;;;;22.90;5.40;;;7.80;99.90;;;;;;5075637;22;20294;-82
2023/01/10 11:39:00;;;;;;;23.23;5.27;;;7.80;99.90;;;;;;5041017;28;20292;-82
2023/01/10 11:41:32;;;;;;;21.03;5.73;;;7.80;99.90;;;;;;5038710;28;20204;-82
2023/01/10 11:44:16;;;;;;;26.10;6.57;;;7.80;99.90;;;;;;5043586;28;20212;-83
2023/01/10 11:46:44;;;;;;;20.03;5.37;;;7.80;99.90;;;;;;5042278;28;20618;-82
2023/01/10 11:49:18;;;;;;;19.33;5.37;;;7.80;99.90;;;;;;5049488;28;20252;-84
2023/01/10 11:51:48;;;;;;;25.53;5.70;;;7.90;99.90;;;;;;5051189;28;20214;-85
2023/01/10 11:54:20;;;;;;;17.30;4.07;;;7.90;99.90;;;;;;5052429;28;20579;-84
2023/01/10 11:56:56;;;;;;;21.73;4.87;;;7.90;99.90;;;;;;5049880;28;20213;-84
2023/01/10 11:59:23;;;;;;;24.13;5.50;;;7.90;99.90;;;;;;5050302;28;20297;-85
2023/01/10 12:02:00;;;;;;;23.73;5.57;;;7.80;99.90;;;;;;5045290;28;20202;-83
2023/01/10 12:04:31;;;;;;;21.27;4.43;;;7.80;99.90;;;;;;5051190;28;20574;-85
2023/01/10 12:07:03;;;;;;;18.37;4.60;;;7.80;99.90;;;;;;5048997;28;20207;-85
2023/01/10 12:09:41;;;;;;;21.43;5.50;;;7.80;99.90;;;;;;5032256;28;20226;-85
2023/01/10 12:12:17;;;;;;;21.77;5.80;;;7.70;99.90;;;;;;5034928;28;20206;-86
2023/01/10 12:14:45;;;;;;;30.80;6.13;;;7.80;99.90;;;;;;5034150;28;20229;-88
2023/01/10 12:17:21;;;;;;;17.53;5.00;;;7.80;99.90;;;;;;5099894;22;20249;-85
2023/01/10 12:19:48;;;;;;;20.63;4.70;;;7.80;99.90;;;;;;5048309;28;20205;-87
2023/01/10 12:22:16;;;;;;;18.00;4.40;;;7.70;99.90;;;;;;5050046;28;20646;-88
2023/01/10 12:24:48;;;;;;;27.37;5.93;;;7.70;99.90;;;;;;5044771;28;20205;-84
2023/01/10 12:27:18;;;;;;;18.27;4.57;;;7.80;99.90;;;;;;5030986;28;20194;-84
2023/01/10 12:29:53;;;;;;;21.93;4.73;;;7.80;99.90;;;;;;5059847;28;20232;-86
2023/01/10 12:32:28;;;;;;;21.57;5.30;;;7.80;99.90;;;;;;5040521;28;20252;-82
2023/01/10 12:35:01;;;;;;;19.70;5.33;;;7.80;99.90;;;;;;5041435;28;20529;-84
2023/01/10 12:37:34;;;;;;;25.00;5.77;;;7.80;99.90;;;;;;5023479;28;20286;-83
2023/01/10 12:40:12;;;;;;;27.80;6.10;;;7.80;99.90;;;;;;5030320;28;20587;-84
2023/01/10 12:45:40;;;;;;;24.43;5.07;;;7.80;99.90;;;;;;5028385;28;20232;-83
2023/01/10 12:48:14;;;;;;;15.97;4.73;;;7.80;99.90;;;;;;5028003;28;20203;-84
2023/01/10 12:50:44;;;;;;;22.17;5.67;;;7.80;99.90;;;;;;5027583;28;20722;-83
2023/01/10 12:53:23;;;;;;;18.20;4.93;;;7.80;99.90;;;;;;5028328;28;20203;-84
2023/01/10 12:55:55;;;;;;;17.23;5.70;;;7.80;99.90;;;;;;5026486;28;20197;-85
2023/01/10 12:58:26;;;;;;;19.03;4.00;;;7.80;99.90;;;;;;5027504;28;20274;-84
2023/01/10 13:00:56;;;;;;;18.83;4.80;;;7.80;99.90;;;;;;5028429;28;20213;-85
2023/01/10 13:03:29;;;;;;;16.83;5.00;;;7.80;99.90;;;;;;5031447;28;20190;-84
2023/01/10 13:05:58;;;;;;;25.37;5.00;;;7.80;99.90;;;;;;5032895;28;20313;-84
2023/01/10 13:08:27;;;;;;;20.60;4.73;;;7.80;99.90;;;;;;5031024;28;20289;-86
2023/01/10 13:10:58;;;;;;;15.70;4.43;;;7.80;99.90;;;;;;5026587;28;20603;-82
2023/01/10 13:13:32;;;;;;;19.73;5.17;;;7.90;99.90;;;;;;5011536;28;20218;-84
2023/01/10 13:16:14;;;;;;;23.10;4.83;;;7.90;99.90;;;;;;5009307;28;20282;-82
2023/01/10 13:18:59;;;;;;;18.03;5.13;;;7.90;99.90;;;;;;5013906;28;20199;-84